sensor_id;sensor_type;location;lat;lon;timestamp;pressure;altitude;pressure_sealevel;temperature;humidity
11413;BME280;5762;43.256;26.960;2023-03-04T00:01:39;99809.70;;;5.98;100.00
11413;BME280;5762;43.256;26.960;2023-03-04T00:04:08;99814.82;;;6.05;100.00
11413;BME280;5762;43.256;26.960;2023-03-04T00:06:37;99814.26;;;5.95;100.00
11413;BME280;5762;43.256;26.960;2023-03-04T00:09:06;99819.36;;;5.94;100.00
11413;BME280;5762;43.256;26.960;2023-03-04T00:11:35;99817.78;;;6.09;100.00
11413;BME280;5762;43.256;26.960;2023-03-04T00:14:04;99828.55;;;6.14;100.00
11413;BME280;5762;43.256;26.960;2023-03-04T00:16:32;99831.73;;;6.00;100.00
11413;BME280;5762;43.256;26.960;2023-03-04T00:19:01;99827.46;;;6.25;100.00
11413;BME280;5762;43.256;26.960;2023-03-04T00:21:30;99828.80;;;6.07;100.00
11413;BME280;5762;43.256;26.960;2023-03-04T00:23:59;99823.70;;;6.11;100.00
11413;BME280;5762;43.256;26.960;2023-03-04T00:26:28;99823.42;;;6.10;100.00
11413;BME280;5762;43.256;26.960;2023-03-04T00:28:57;99825.84;;;6.06;100.00
11413;BME280;5762;43.256;26.960;2023-03-04T00:31:26;99828.23;;;5.97;100.00
11413;BME280;5762;43.256;26.960;2023-03-04T00:33:55;99826.89;;;5.97;100.00
11413;BME280;5762;43.256;26.960;2023-03-04T00:36:24;99827.46;;;6.10;100.00
11413;BME280;5762;43.256;26.960;2023-03-04T00:38:53;99819.41;;;6.17;100.00
11413;BME280;5762;43.256;26.960;2023-03-04T00:41:21;99821.54;;;6.08;100.00
11413;BME280;5762;43.256;26.960;2023-03-04T00:43:49;99815.34;;;6.02;100.00
11413;BME280;5762;43.256;26.960;2023-03-04T00:46:17;99819.65;;;6.03;100.00
11413;BME280;5762;43.256;26.960;2023-03-04T00:48:45;99818.05;;;6.07;100.00
11413;BME280;5762;43.256;26.960;2023-03-04T00:51:14;99820.48;;;6.14;100.00
11413;BME280;5762;43.256;26.960;2023-03-04T00:53:43;99819.14;;;6.16;100.00
11413;BME280;5762;43.256;26.960;2023-03-04T00:56:12;99816.19;;;6.15;100.00
11413;BME280;5762;43.256;26.960;2023-03-04T00:58:40;99818.84;;;6.02;100.00
11413;BME280;5762;43.256;26.960;2023-03-04T01:01:09;99805.41;;;6.00;100.00
11413;BME280;5762;43.256;26.960;2023-03-04T01:03:38;99795.73;;;5.96;100.00
11413;BME280;5762;43.256;26.960;2023-03-04T01:06:07;99789.00;;;5.94;100.00
11413;BME280;5762;43.256;26.960;2023-03-04T01:08:36;99787.38;;;5.90;100.00
11413;BME280;5762;43.256;26.960;2023-03-04T01:11:05;99794.90;;;5.88;100.00
11413;BME280;5762;43.256;26.960;2023-03-04T01:13:34;99797.31;;;5.85;100.00
11413;BME280;5762;43.256;26.960;2023-03-04T01:16:02;99795.44;;;5.90;100.00
11413;BME280;5762;43.256;26.960;2023-03-04T01:18:31;99793.30;;;5.90;100.00
11413;BME280;5762;43.256;26.960;2023-03-04T01:21:00;99803.47;;;5.80;100.00
11413;BME280;5762;43.256;26.960;2023-03-04T01:23:29;99818.80;;;5.85;100.00
11413;BME280;5762;43.256;26.960;2023-03-04T01:25:58;99814.26;;;5.95;100.00
11413;BME280;5762;43.256;26.960;2023-03-04T01:28:27;99815.86;;;5.94;100.00
11413;BME280;5762;43.256;26.960;2023-03-04T01:30:55;99819.09;;;5.96;100.00
11413;BME280;5762;43.256;26.960;2023-03-04T01:33:24;99818.83;;;5.97;100.00
11413;BME280;5762;43.256;26.960;2023-03-04T01:35:53;99812.66;;;6.02;100.00
11413;BME280;5762;43.256;26.960;2023-03-04T01:38:22;99813.20;;;6.01;100.00
11413;BME280;5762;43.256;26.960;2023-03-04T01:40:51;99808.38;;;6.03;100.00
11413;BME280;5762;43.256;26.960;2023-03-04T01:43:24;99800.86;;;6.11;100.00
11413;BME280;5762;43.256;26.960;2023-03-04T01:45:53;99801.15;;;6.22;100.00
11413;BME280;5762;43.256;26.960;2023-03-04T01:48:27;99804.62;;;6.25;100.00
11413;BME280;5762;43.256;26.960;2023-03-04T01:50:55;99804.62;;;6.25;100.00
11413;BME280;5762;43.256;26.960;2023-03-04T01:53:26;99810.00;;;6.30;100.00
11413;BME280;5762;43.256;26.960;2023-03-04T01:55:56;99802.48;;;6.32;100.00
11413;BME280;5762;43.256;26.960;2023-03-04T01:58:25;99790.38;;;6.32;100.00
11413;BME280;5762;43.256;26.960;2023-03-04T02:00:54;99787.69;;;6.27;100.00
11413;BME280;5762;43.256;26.960;2023-03-04T02:03:23;99787.98;;;6.20;100.00
11413;BME280;5762;43.256;26.960;2023-03-04T02:05:52;99787.17;;;6.17;100.00
11413;BME280;5762;43.256;26.960;2023-03-04T02:08:22;99785.82;;;6.15;100.00
11413;BME280;5762;43.256;26.960;2023-03-04T02:10:51;99782.05;;;6.11;100.00
11413;BME280;5762;43.256;26.960;2023-03-04T02:13:20;99779.91;;;6.10;100.00
11413;BME280;5762;43.256;26.960;2023-03-04T02:15:49;99785.28;;;6.10;100.00
11413;BME280;5762;43.256;26.960;2023-03-04T02:18:19;99782.32;;;6.09;100.00
11413;BME280;5762;43.256;26.960;2023-03-04T02:21:04;99778.82;;;6.06;100.00
11413;BME280;5762;43.256;26.960;2023-03-04T02:23:46;99772.37;;;6.04;100.00
11413;BME280;5762;43.256;26.960;2023-03-04T02:26:18;99776.67;;;6.05;100.00
11413;BME280;5762;43.256;26.960;2023-03-04T02:28:44;99771.30;;;6.05;100.00
11413;BME280;5762;43.256;26.960;2023-03-04T02:31:20;99767.53;;;6.04;100.00
11413;BME280;5762;43.256;26.960;2023-03-04T02:33:46;99763.23;;;6.00;100.00
11413;BME280;5762;43.256;26.960;2023-03-04T02:36:15;99754.35;;;5.92;100.00
11413;BME280;5762;43.256;26.960;2023-03-04T02:38:44;99763.48;;;5.94;100.00
11413;BME280;5762;43.256;26.960;2023-03-04T02:41:12;99762.69;;;5.98;100.00
11413;BME280;5762;43.256;26.960;2023-03-04T02:43:42;99763.75;;;5.90;100.00
11413;BME280;5762;43.256;26.960;2023-03-04T02:46:11;99761.05;;;5.85;100.00
11413;BME280;5762;43.256;26.960;2023-03-04T02:48:40;99774.22;;;5.91;100.00
11413;BME280;5762;43.256;26.960;2023-03-04T02:51:09;99776.65;;;5.93;100.00
11413;BME280;5762;43.256;26.960;2023-03-04T02:53:38;99775.30;;;5.93;100.00
11413;BME280;5762;43.256;26.960;2023-03-04T02:56:06;99774.78;;;6.01;100.00
11413;BME280;5762;43.256;26.960;2023-03-04T02:58:35;99778.54;;;5.97;100.00
11413;BME280;5762;43.256;26.960;2023-03-04T03:01:04;99772.89;;;5.96;100.00
11413;BME280;5762;43.256;26.960;2023-03-04T03:03:33;99777.75;;;6.37;100.00
11413;BME280;5762;43.256;26.960;2023-03-04T03:06:01;99770.52;;;6.18;100.00
11413;BME280;5762;43.256;26.960;2023-03-04T03:08:29;99771.31;;;6.13;100.00
11413;BME280;5762;43.256;26.960;2023-03-04T03:10:58;99771.03;;;6.10;100.00
11413;BME280;5762;43.256;26.960;2023-03-04T03:13:27;99771.05;;;6.15;100.00
11413;BME280;5762;43.256;26.960;2023-03-04T03:15:56;99772.91;;;6.24;100.00
11413;BME280;5762;43.256;26.960;2023-03-04T03:18:24;99768.06;;;6.26;100.00
11413;BME280;5762;43.256;26.960;2023-03-04T03:20:53;99768.88;;;6.32;100.00
11413;BME280;5762;43.256;26.960;2023-03-04T03:23:23;99762.16;;;6.32;100.00
11413;BME280;5762;43.256;26.960;2023-03-04T03:25:52;99759.20;;;6.33;100.00
11413;BME280;5762;43.256;26.960;2023-03-04T03:28:20;99759.47;;;6.37;100.00
11413;BME280;5762;43.256;26.960;2023-03-04T03:30:49;99761.36;;;6.34;100.00
11413;BME280;5762;43.256;26.960;2023-03-04T03:33:18;99764.04;;;6.36;100.00
11413;BME280;5762;43.256;26.960;2023-03-04T03:35:47;99764.58;;;6.36;100.00
11413;BME280;5762;43.256;26.960;2023-03-04T03:38:16;99767.80;;;6.30;100.00
11413;BME280;5762;43.256;26.960;2023-03-04T03:40:45;99762.16;;;6.29;100.00
11413;BME280;5762;43.256;26.960;2023-03-04T03:43:14;99764.31;;;6.32;100.00
11413;BME280;5762;43.256;26.960;2023-03-04T03:45:42;99763.50;;;6.37;100.00
11413;BME280;5762;43.256;26.960;2023-03-04T03:48:11;99771.84;;;6.38;100.00
11413;BME280;5762;43.256;26.960;2023-03-04T03:50:39;99773.18;;;6.38;100.00
11413;BME280;5762;43.256;26.960;2023-03-04T03:53:08;99772.37;;;6.40;100.00
11413;BME280;5762;43.256;26.960;2023-03-04T03:55:37;99772.11;;;6.39;100.00
11413;BME280;5762;43.256;26.960;2023-03-04T03:58:06;99769.15;;;6.38;100.00
11413;BME280;5762;43.256;26.960;2023-03-04T04:00:35;99767.27;;;6.41;100.00
11413;BME280;5762;43.256;26.960;2023-03-04T04:03:03;99770.50;;;6.38;100.00
11413;BME280;5762;43.256;26.960;2023-03-04T04:05:32;99774.53;;;6.41;100.00
11413;BME280;5762;43.256;26.960;2023-03-04T04:08:01;99760.55;;;6.46;100.00
11413;BME280;5762;43.256;26.960;2023-03-04T04:10:30;99757.86;;;6.46;100.00
11413;BME280;5762;43.256;26.960;2023-03-04T04:12:58;99757.86;;;6.38;100.00
11413;BME280;5762;43.256;26.960;2023-03-04T04:15:27;99756.52;;;6.36;100.00
11413;BME280;5762;43.256;26.960;2023-03-04T04:17:56;99758.66;;;6.24;100.00
11413;BME280;5762;43.256;26.960;2023-03-04T04:20:24;99764.30;;;5.99;100.00
11413;BME280;5762;43.256;26.960;2023-03-04T04:22:53;99771.02;;;5.94;100.00
11413;BME280;5762;43.256;26.960;2023-03-04T04:25:22;99766.66;;;5.76;100.00
11413;BME280;5762;43.256;26.960;2023-03-04T04:27:50;99782.24;;;5.76;100.00
11413;BME280;5762;43.256;26.960;2023-03-04T04:30:19;99783.31;;;5.75;100.00
11413;BME280;5762;43.256;26.960;2023-03-04T04:32:48;99787.84;;;5.64;100.00
11413;BME280;5762;43.256;26.960;2023-03-04T04:35:17;99780.86;;;5.63;100.00
11413;BME280;5762;43.256;26.960;2023-03-04T04:37:45;99793.47;;;5.63;100.00
11413;BME280;5762;43.256;26.960;2023-03-04T04:40:14;99794.02;;;5.65;100.00
11413;BME280;5762;43.256;26.960;2023-03-04T04:42:43;99799.36;;;5.57;100.00
11413;BME280;5762;43.256;26.960;2023-03-04T04:45:12;99807.16;;;5.61;100.00
11413;BME280;5762;43.256;26.960;2023-03-04T04:47:40;99815.24;;;5.69;100.00
11413;BME280;5762;43.256;26.960;2023-03-04T04:50:09;99823.06;;;5.76;100.00
11413;BME280;5762;43.256;26.960;2023-03-04T04:52:38;99826.00;;;5.71;100.00
11413;BME280;5762;43.256;26.960;2023-03-04T04:55:07;99837.84;;;5.78;100.00
11413;BME280;5762;43.256;26.960;2023-03-04T04:57:36;99837.84;;;5.78;100.00
11413;BME280;5762;43.256;26.960;2023-03-04T05:00:05;99842.94;;;5.77;100.00
11413;BME280;5762;43.256;26.960;2023-03-04T05:02:35;99844.04;;;5.86;100.00
11413;BME280;5762;43.256;26.960;2023-03-04T05:05:04;99849.19;;;5.98;100.00
11413;BME280;5762;43.256;26.960;2023-03-04T05:07:33;99845.16;;;6.00;100.00
11413;BME280;5762;43.256;26.960;2023-03-04T05:10:03;99846.01;;;6.14;100.00
11413;BME280;5762;43.256;26.960;2023-03-04T05:12:31;99845.48;;;6.22;100.00
11413;BME280;5762;43.256;26.960;2023-03-04T05:15:00;99845.73;;;6.10;100.00
11413;BME280;5762;43.256;26.960;2023-03-04T05:17:29;99850.28;;;6.04;100.00
11413;BME280;5762;43.256;26.960;2023-03-04T05:19:58;99854.06;;;6.14;100.00
11413;BME280;5762;43.256;26.960;2023-03-04T05:22:25;99848.16;;;6.12;100.00
11413;BME280;5762;43.256;26.960;2023-03-04T05:24:54;99851.91;;;6.11;100.00
11413;BME280;5762;43.256;26.960;2023-03-04T05:27:22;99862.66;;;6.26;100.00
11413;BME280;5762;43.256;26.960;2023-03-04T05:29:51;99855.96;;;6.18;100.00
11413;BME280;5762;43.256;26.960;2023-03-04T05:32:20;99858.37;;;6.27;100.00
11413;BME280;5762;43.256;26.960;2023-03-04T05:34:49;99854.08;;;6.29;100.00
11413;BME280;5762;43.256;26.960;2023-03-04T05:37:18;99854.06;;;6.26;100.00
11413;BME280;5762;43.256;26.960;2023-03-04T05:39:47;99858.09;;;6.24;100.00
11413;BME280;5762;43.256;26.960;2023-03-04T05:42:16;99854.08;;;6.19;100.00
11413;BME280;5762;43.256;26.960;2023-03-04T05:44:45;99860.55;;;6.23;100.00
11413;BME280;5762;43.256;26.960;2023-03-04T05:47:13;99855.67;;;6.12;100.00
11413;BME280;5762;43.256;26.960;2023-03-04T05:49:42;99866.71;;;6.18;100.00
11413;BME280;5762;43.256;26.960;2023-03-04T05:52:11;99866.96;;;6.12;100.00
11413;BME280;5762;43.256;26.960;2023-03-04T05:54:40;99865.04;;;5.99;100.00
11413;BME280;5762;43.256;26.960;2023-03-04T05:57:09;99862.86;;;5.91;100.00
11413;BME280;5762;43.256;26.960;2023-03-04T05:59:37;99865.02;;;5.94;100.00
11413;BME280;5762;43.256;26.960;2023-03-04T06:02:06;99868.47;;;5.82;100.00
11413;BME280;5762;43.256;26.960;2023-03-04T06:04:35;99872.28;;;5.96;100.00
11413;BME280;5762;43.256;26.960;2023-03-04T06:07:04;99876.34;;;6.07;100.00
11413;BME280;5762;43.256;26.960;2023-03-04T06:09:32;99877.95;;;6.05;100.00
11413;BME280;5762;43.256;26.960;2023-03-04T06:12:01;99883.09;;;6.27;100.00
11413;BME280;5762;43.256;26.960;2023-03-04T06:14:29;99882.56;;;6.27;100.00
11413;BME280;5762;43.256;26.960;2023-03-04T06:16:58;99887.39;;;6.25;100.00
11413;BME280;5762;43.256;26.960;2023-03-04T06:19:26;99889.56;;;6.36;100.00
11413;BME280;5762;43.256;26.960;2023-03-04T06:21:55;99889.59;;;6.46;100.00
11413;BME280;5762;43.256;26.960;2023-03-04T06:24:24;99893.08;;;6.44;100.00
11413;BME280;5762;43.256;26.960;2023-03-04T06:26:54;99892.81;;;6.46;100.00
11413;BME280;5762;43.256;26.960;2023-03-04T06:29:23;99888.23;;;6.41;100.00
11413;BME280;5762;43.256;26.960;2023-03-04T06:31:51;99894.70;;;6.45;100.00
11413;BME280;5762;43.256;26.960;2023-03-04T06:34:20;99892.82;;;6.48;100.00
11413;BME280;5762;43.256;26.960;2023-03-04T06:36:48;99892.30;;;6.54;100.00
11413;BME280;5762;43.256;26.960;2023-03-04T06:39:16;99884.20;;;6.64;100.00
11413;BME280;5762;43.256;26.960;2023-03-04T06:41:45;99885.28;;;6.65;100.00
11413;BME280;5762;43.256;26.960;2023-03-04T06:44:14;99878.59;;;6.58;100.00
11413;BME280;5762;43.256;26.960;2023-03-04T06:46:42;99872.13;;;6.56;100.00
11413;BME280;5762;43.256;26.960;2023-03-04T06:49:10;99868.34;;;6.62;100.00
11413;BME280;5762;43.256;26.960;2023-03-04T06:51:39;99868.61;;;6.63;100.00
11413;BME280;5762;43.256;26.960;2023-03-04T06:54:08;99869.42;;;6.64;100.00
11413;BME280;5762;43.256;26.960;2023-03-04T06:56:37;99855.43;;;6.59;100.00
11413;BME280;5762;43.256;26.960;2023-03-04T06:59:06;99853.55;;;6.65;100.00
11413;BME280;5762;43.256;26.960;2023-03-04T07:01:34;99854.63;;;6.64;100.00
11413;BME280;5762;43.256;26.960;2023-03-04T07:04:04;99855.16;;;6.63;100.00
11413;BME280;5762;43.256;26.960;2023-03-04T07:06:32;99834.73;;;6.60;100.00
11413;BME280;5762;43.256;26.960;2023-03-04T07:09:01;99845.48;;;6.72;100.00
11413;BME280;5762;43.256;26.960;2023-03-04T07:11:30;99847.10;;;6.81;100.00
11413;BME280;5762;43.256;26.960;2023-03-04T07:13:58;99839.84;;;6.77;100.00
11413;BME280;5762;43.256;26.960;2023-03-04T07:16:26;99841.19;;;6.84;100.00
11413;BME280;5762;43.256;26.960;2023-03-04T07:18:54;99832.84;;;6.86;100.00
11413;BME280;5762;43.256;26.960;2023-03-04T07:21:23;99840.34;;;6.94;100.00
11413;BME280;5762;43.256;26.960;2023-03-04T07:23:52;99836.34;;;6.84;100.00
11413;BME280;5762;43.256;26.960;2023-03-04T07:26:20;99833.92;;;6.90;100.00
11413;BME280;5762;43.256;26.960;2023-03-04T07:28:49;99827.16;;;6.95;100.00
11413;BME280;5762;43.256;26.960;2023-03-04T07:31:19;99829.08;;;6.74;100.00
11413;BME280;5762;43.256;26.960;2023-03-04T07:33:46;99821.00;;;6.92;100.00
11413;BME280;5762;43.256;26.960;2023-03-04T07:36:16;99825.85;;;6.80;100.00
11413;BME280;5762;43.256;26.960;2023-03-04T07:38:46;99821.23;;;6.95;100.00
11413;BME280;5762;43.256;26.960;2023-03-04T07:41:16;99821.20;;;7.18;100.00
11413;BME280;5762;43.256;26.960;2023-03-04T07:43:44;99810.96;;;7.23;100.00
11413;BME280;5762;43.256;26.960;2023-03-04T07:46:12;99815.02;;;7.15;100.00
11413;BME280;5762;43.256;26.960;2023-03-04T07:48:41;99812.79;;;7.32;100.00
11413;BME280;5762;43.256;26.960;2023-03-04T07:51:22;99805.80;;;7.31;100.00
11413;BME280;5762;43.256;26.960;2023-03-04T07:53:47;99797.66;;;7.49;100.00
11413;BME280;5762;43.256;26.960;2023-03-04T07:56:17;99791.30;;;7.79;100.00
11413;BME280;5762;43.256;26.960;2023-03-04T07:58:45;99787.13;;;7.99;100.00
11413;BME280;5762;43.256;26.960;2023-03-04T08:01:15;99781.41;;;8.08;100.00
11413;BME280;5762;43.256;26.960;2023-03-04T08:03:44;99774.41;;;8.07;100.00
11413;BME280;5762;43.256;26.960;2023-03-04T08:06:14;99767.00;;;8.26;100.00
11413;BME280;5762;43.256;26.960;2023-03-04T08:08:43;99758.43;;;8.53;100.00
11413;BME280;5762;43.256;26.960;2023-03-04T08:11:12;99760.49;;;8.63;100.00
11413;BME280;5762;43.256;26.960;2023-03-04T08:13:40;99756.28;;;8.79;100.00
11413;BME280;5762;43.256;26.960;2023-03-04T08:16:11;99758.64;;;8.85;100.00
11413;BME280;5762;43.256;26.960;2023-03-04T08:18:39;99751.19;;;8.74;100.00
11413;BME280;5762;43.256;26.960;2023-03-04T08:21:09;99752.44;;;8.85;100.00
11413;BME280;5762;43.256;26.960;2023-03-04T08:23:38;99749.42;;;8.89;100.00
11413;BME280;5762;43.256;26.960;2023-03-04T08:26:16;99746.52;;;9.06;100.00
11413;BME280;5762;43.256;26.960;2023-03-04T08:28:39;99747.98;;;9.20;100.00
11413;BME280;5762;43.256;26.960;2023-03-04T08:31:08;99742.58;;;9.20;100.00
11413;BME280;5762;43.256;26.960;2023-03-04T08:33:37;99745.04;;;9.38;100.00
11413;BME280;5762;43.256;26.960;2023-03-04T08:36:07;99736.03;;;9.26;100.00
11413;BME280;5762;43.256;26.960;2023-03-04T08:38:35;99738.41;;;9.06;100.00
11413;BME280;5762;43.256;26.960;2023-03-04T08:41:04;99733.52;;;9.32;100.00
11413;BME280;5762;43.256;26.960;2023-03-04T08:43:32;99730.62;;;9.26;100.00
11413;BME280;5762;43.256;26.960;2023-03-04T08:46:01;99732.45;;;8.86;100.00
11413;BME280;5762;43.256;26.960;2023-03-04T08:48:30;99734.05;;;9.11;100.00
11413;BME280;5762;43.256;26.960;2023-03-04T08:50:59;99736.89;;;9.22;100.00
11413;BME280;5762;43.256;26.960;2023-03-04T08:53:28;99738.00;;;9.61;100.00
11413;BME280;5762;43.256;26.960;2023-03-04T08:55:57;99731.88;;;10.06;100.00
11413;BME280;5762;43.256;26.960;2023-03-04T08:58:26;99724.33;;;10.25;100.00
11413;BME280;5762;43.256;26.960;2023-03-04T09:00:55;99719.56;;;10.35;100.00
11413;BME280;5762;43.256;26.960;2023-03-04T09:03:23;99713.64;;;10.33;100.00
11413;BME280;5762;43.256;26.960;2023-03-04T09:05:51;99709.50;;;10.52;100.00
11413;BME280;5762;43.256;26.960;2023-03-04T09:08:19;99711.77;;;10.75;100.00
11413;BME280;5762;43.256;26.960;2023-03-04T09:10:50;99707.73;;;10.89;100.00
11413;BME280;5762;43.256;26.960;2023-03-04T09:13:17;99701.00;;;10.86;100.00
11413;BME280;5762;43.256;26.960;2023-03-04T09:15:47;99703.00;;;10.81;100.00
11413;BME280;5762;43.256;26.960;2023-03-04T09:18:17;99700.41;;;10.89;100.00
11413;BME280;5762;43.256;26.960;2023-03-04T09:20:46;99694.80;;;10.72;100.00
11413;BME280;5762;43.256;26.960;2023-03-04T09:23:15;99692.23;;;10.64;100.00
11413;BME280;5762;43.256;26.960;2023-03-04T09:25:44;99690.33;;;10.65;100.00
11413;BME280;5762;43.256;26.960;2023-03-04T09:28:14;99684.67;;;10.64;100.00
11413;BME280;5762;43.256;26.960;2023-03-04T09:30:43;99681.34;;;10.39;100.00
11413;BME280;5762;43.256;26.960;2023-03-04T09:33:12;99682.41;;;10.25;100.00
11413;BME280;5762;43.256;26.960;2023-03-04T09:35:42;99675.86;;;10.42;100.00
11413;BME280;5762;43.256;26.960;2023-03-04T09:38:10;99673.95;;;10.29;100.00
11413;BME280;5762;43.256;26.960;2023-03-04T09:40:43;99668.16;;;10.49;100.00
11413;BME280;5762;43.256;26.960;2023-03-04T09:43:22;99669.53;;;10.63;100.00
11413;BME280;5762;43.256;26.960;2023-03-04T09:45:49;99662.53;;;10.46;100.00
11413;BME280;5762;43.256;26.960;2023-03-04T09:48:19;99655.12;;;10.51;100.00
11413;BME280;5762;43.256;26.960;2023-03-04T09:50:48;99659.35;;;10.57;100.00
11413;BME280;5762;43.256;26.960;2023-03-04T09:53:24;99652.69;;;10.38;100.00
11413;BME280;5762;43.256;26.960;2023-03-04T09:55:52;99650.98;;;10.56;100.00
11413;BME280;5762;43.256;26.960;2023-03-04T10:01:04;99640.31;;;10.62;100.00
11413;BME280;5762;43.256;26.960;2023-03-04T10:03:50;99636.73;;;10.78;100.00
11413;BME280;5762;43.256;26.960;2023-03-04T10:06:20;99642.09;;;10.94;100.00
11413;BME280;5762;43.256;26.960;2023-03-04T10:08:56;99633.72;;;10.93;100.00
11413;BME280;5762;43.256;26.960;2023-03-04T10:14:25;99622.69;;;10.76;100.00
11413;BME280;5762;43.256;26.960;2023-03-04T10:21:57;99613.16;;;10.67;100.00
11413;BME280;5762;43.256;26.960;2023-03-04T10:24:27;99607.39;;;10.71;100.00
11413;BME280;5762;43.256;26.960;2023-03-04T10:27:06;99610.39;;;10.70;100.00
11413;BME280;5762;43.256;26.960;2023-03-04T10:29:30;99610.71;;;10.80;100.00
11413;BME280;5762;43.256;26.960;2023-03-04T10:31:59;99605.54;;;10.94;100.00
11413;BME280;5762;43.256;26.960;2023-03-04T10:34:28;99608.28;;;11.05;100.00
11413;BME280;5762;43.256;26.960;2023-03-04T10:37:00;99607.52;;;11.27;100.00
11413;BME280;5762;43.256;26.960;2023-03-04T10:39:32;99595.32;;;11.27;100.00
11413;BME280;5762;43.256;26.960;2023-03-04T10:42:05;99587.77;;;11.38;100.00
11413;BME280;5762;43.256;26.960;2023-03-04T10:44:34;99586.52;;;11.55;100.00
11413;BME280;5762;43.256;26.960;2023-03-04T10:47:02;99587.20;;;11.61;100.00
11413;BME280;5762;43.256;26.960;2023-03-04T10:49:32;99578.39;;;11.55;100.00
11413;BME280;5762;43.256;26.960;2023-03-04T10:52:01;99574.03;;;11.34;100.00
11413;BME280;5762;43.256;26.960;2023-03-04T10:54:39;99568.24;;;11.38;100.00
11413;BME280;5762;43.256;26.960;2023-03-04T10:57:03;99559.98;;;11.55;100.00
11413;BME280;5762;43.256;26.960;2023-03-04T11:04:34;99548.14;;;11.73;100.00
11413;BME280;5762;43.256;26.960;2023-03-04T11:07:06;99540.14;;;11.68;100.00
11413;BME280;5762;43.256;26.960;2023-03-04T11:09:32;99541.62;;;11.52;100.00
11413;BME280;5762;43.256;26.960;2023-03-04T11:12:00;99545.44;;;11.51;100.00
11413;BME280;5762;43.256;26.960;2023-03-04T11:15:02;99541.31;;;11.53;100.00
11413;BME280;5762;43.256;26.960;2023-03-04T11:17:23;99534.72;;;11.68;100.00
11413;BME280;5762;43.256;26.960;2023-03-04T11:22:21;99532.77;;;12.02;100.00
11413;BME280;5762;43.256;26.960;2023-03-04T11:24:53;99525.92;;;12.13;100.00
11413;BME280;5762;43.256;26.960;2023-03-04T11:27:20;99524.12;;;12.20;100.00
11413;BME280;5762;43.256;26.960;2023-03-04T11:29:57;99518.66;;;12.31;100.00
11413;BME280;5762;43.256;26.960;2023-03-04T11:32:26;99518.55;;;12.25;100.00
11413;BME280;5762;43.256;26.960;2023-03-04T11:34:55;99508.19;;;12.27;100.00
11413;BME280;5762;43.256;26.960;2023-03-04T11:37:34;99503.00;;;12.28;100.00
11413;BME280;5762;43.256;26.960;2023-03-04T11:42:39;99496.19;;;12.11;100.00
11413;BME280;5762;43.256;26.960;2023-03-04T11:45:16;99485.41;;;12.17;100.00
11413;BME280;5762;43.256;26.960;2023-03-04T11:48:08;99488.61;;;12.19;100.00
11413;BME280;5762;43.256;26.960;2023-03-04T11:53:11;99486.89;;;12.31;100.00
11413;BME280;5762;43.256;26.960;2023-03-04T11:55:55;99489.38;;;12.48;100.00
11413;BME280;5762;43.256;26.960;2023-03-04T12:01:07;99472.72;;;12.43;100.00
11413;BME280;5762;43.256;26.960;2023-03-04T12:03:42;99479.44;;;12.63;100.00
11413;BME280;5762;43.256;26.960;2023-03-04T12:06:11;99472.20;;;12.78;100.00
11413;BME280;5762;43.256;26.960;2023-03-04T12:08:52;99469.86;;;13.00;100.00
11413;BME280;5762;43.256;26.960;2023-03-04T12:11:24;99468.30;;;13.16;100.00
11413;BME280;5762;43.256;26.960;2023-03-04T12:16:32;99464.72;;;13.41;100.00
11413;BME280;5762;43.256;26.960;2023-03-04T12:21:35;99469.59;;;13.65;100.00
11413;BME280;5762;43.256;26.960;2023-03-04T12:24:10;99471.50;;;13.73;100.00
11413;BME280;5762;43.256;26.960;2023-03-04T12:31:35;99466.91;;;12.99;100.00
11413;BME280;5762;43.256;26.960;2023-03-04T12:34:15;99460.91;;;13.25;100.00
11413;BME280;5762;43.256;26.960;2023-03-04T12:42:09;99447.64;;;13.15;100.00
11413;BME280;5762;43.256;26.960;2023-03-04T12:47:08;99446.56;;;12.82;100.00
11413;BME280;5762;43.256;26.960;2023-03-04T12:54:48;99438.56;;;12.77;100.00
11413;BME280;5762;43.256;26.960;2023-03-04T12:57:25;99436.78;;;12.89;100.00
11413;BME280;5762;43.256;26.960;2023-03-04T12:59:51;99432.86;;;13.10;100.00
11413;BME280;5762;43.256;26.960;2023-03-04T13:10:22;99420.58;;;13.45;100.00
11413;BME280;5762;43.256;26.960;2023-03-04T13:12:53;99416.70;;;13.22;100.00
11413;BME280;5762;43.256;26.960;2023-03-04T13:17:58;99406.11;;;12.97;100.00
11413;BME280;5762;43.256;26.960;2023-03-04T13:20:31;99406.74;;;13.03;100.00
11413;BME280;5762;43.256;26.960;2023-03-04T13:23:03;99407.70;;;13.07;100.00
11413;BME280;5762;43.256;26.960;2023-03-04T13:25:35;99401.38;;;13.09;100.00
11413;BME280;5762;43.256;26.960;2023-03-04T13:43:42;99377.06;;;13.21;100.00
11413;BME280;5762;43.256;26.960;2023-03-04T13:51:26;99365.55;;;14.06;100.00
11413;BME280;5762;43.256;26.960;2023-03-04T13:56:27;99351.22;;;14.39;100.00
11413;BME280;5762;43.256;26.960;2023-03-04T14:01:31;99345.44;;;14.55;100.00
11413;BME280;5762;43.256;26.960;2023-03-04T14:03:59;99347.00;;;14.56;100.00
11413;BME280;5762;43.256;26.960;2023-03-04T14:06:29;99340.92;;;14.65;100.00
11413;BME280;5762;43.256;26.960;2023-03-04T14:08:58;99338.27;;;14.57;100.00
11413;BME280;5762;43.256;26.960;2023-03-04T14:11:28;99336.77;;;14.47;100.00
11413;BME280;5762;43.256;26.960;2023-03-04T14:13:57;99334.75;;;14.35;100.00
11413;BME280;5762;43.256;26.960;2023-03-04T14:16:27;99342.65;;;14.28;100.00
11413;BME280;5762;43.256;26.960;2023-03-04T14:19:12;99332.05;;;14.21;100.00
11413;BME280;5762;43.256;26.960;2023-03-04T14:21:33;99323.47;;;14.04;100.00
11413;BME280;5762;43.256;26.960;2023-03-04T14:24:06;99327.78;;;14.05;100.00
11413;BME280;5762;43.256;26.960;2023-03-04T14:26:34;99320.56;;;14.09;100.00
11413;BME280;5762;43.256;26.960;2023-03-04T14:29:18;99323.69;;;14.20;100.00
11413;BME280;5762;43.256;26.960;2023-03-04T14:31:33;99315.63;;;14.23;100.00
11413;BME280;5762;43.256;26.960;2023-03-04T14:34:02;99317.09;;;14.00;100.00
11413;BME280;5762;43.256;26.960;2023-03-04T14:36:31;99318.84;;;13.90;100.00